Time;durP1;ratioP1;P1;durP2;ratioP2;P2;SDS_P1;SDS_P2;PMS_P1;PMS_P2;Temp;Humidity;BMP_temperature;BMP_pressure;BME280_temperature;BME280_humidity;BME280_pressure;Samples;Min_cycle;Max_cycle;Signal;HPM_P1;HPM_P2
2022/12/07 00:01:38;;;;;;;;;;;;;;;;;;5015046;28;19920;-62
2022/12/07 00:04:04;;;;;;;;;;;;;;;;;;5027884;28;19927;-60
2022/12/07 00:06:29;;;;;;;;;;;;;;;;;;4999301;28;20314;-60
2022/12/07 00:08:55;;;;;;;;;;;;;;;;;;5030161;28;19928;-62
2022/12/07 00:11:20;;;;;;;;;;;;;;;;;;5033116;28;20368;-61
2022/12/07 00:13:46;;;;;;;;;;;;;;;;;;5012434;28;19962;-61
2022/12/07 00:16:11;;;;;;;;;;;;;;;;;;5035721;28;19935;-61
2022/12/07 00:18:37;;;;;;;;;;;;;;;;;;5020299;28;20521;-61
2022/12/07 00:21:02;;;;;;;;;;;;;;;;;;5031551;28;19968;-62
2022/12/07 00:23:27;;;;;;;;;;;;;;;;;;5036933;28;19956;-62
2022/12/07 00:25:55;;;;;;;;;;;;;;;;;;5033964;28;19924;-62
2022/12/07 00:28:21;;;;;;;;;;;;;;;;;;5032405;28;20363;-62
2022/12/07 00:30:46;;;;;;;;;;;;;;;;;;5032662;28;19917;-61
2022/12/07 00:33:11;;;;;;;;;;;;;;;;;;5030338;28;20001;-62
2022/12/07 00:35:42;;;;;;;;;;;;;;;;;;5019619;28;19957;-62
2022/12/07 00:38:09;;;;;;;;;;;;;;;;;;5018525;28;20006;-62
2022/12/07 00:40:35;;;;;;;;;;;;;;;;;;5033359;28;20698;-61
2022/12/07 00:43:03;;;;;;;;;;;;;;;;;;5035399;28;19920;-60
2022/12/07 00:45:28;;;;;;;;;;;;;;;;;;5032409;28;20668;-61
2022/12/07 00:47:56;;;;;;;;;;;;;;;;;;5023524;28;20046;-60
2022/12/07 00:50:23;;;;;;;;;;;;;;;;;;5030046;28;19922;-60
2022/12/07 00:52:49;;;;;;;;;;;;;;;;;;5035337;28;19921;-60
2022/12/07 00:55:18;;;;;;;;;;;;;;;;;;5030237;28;19916;-60
2022/12/07 00:57:46;;;;;;;;;;;;;;;;;;5033247;28;19925;-60
2022/12/07 01:00:14;;;;;;;;;;;;;;;;;;5026333;28;19920;-61
2022/12/07 01:02:42;;;;;;;;;;;;;;;;;;5021021;28;19955;-60
2022/12/07 01:05:07;;;;;;;;;;;;;;;;;;5014164;28;19923;-61
2022/12/07 01:07:33;;;;;;;;;;;;;;;;;;5035130;28;19920;-60
2022/12/07 01:10:01;;;;;;;;;;;;;;;;;;5033918;28;20018;-60
2022/12/07 01:12:26;;;;;;;;;;;;;;;;;;5037754;28;20469;-60
2022/12/07 01:14:51;;;;;;;;;;;;;;;;;;5035178;28;19928;-60
2022/12/07 01:17:17;;;;;;;;;;;;;;;;;;5017170;28;19928;-60
2022/12/07 01:19:42;;;;;;;;;;;;;;;;;;5032180;28;20237;-60
2022/12/07 01:22:10;;;;;;;;;;;;;;;;;;5036488;28;20170;-61
2022/12/07 01:24:35;;;;;;;;;;;;;;;;;;4999244;28;20332;-61
2022/12/07 01:27:01;;;;;;;;;;;;;;;;;;5038261;28;20774;-60
2022/12/07 01:29:29;;;;;;;;;;;;;;;;;;5018072;28;19921;-61
2022/12/07 01:31:54;;;;;;;;;;;;;;;;;;5032763;28;20097;-61
2022/12/07 01:34:20;;;;;;;;;;;;;;;;;;5030637;28;19983;-60
2022/12/07 01:36:45;;;;;;;;;;;;;;;;;;5032460;28;19924;-60
2022/12/07 01:39:10;;;;;;;;;;;;;;;;;;5033869;28;19931;-59
2022/12/07 01:41:42;;;;;;;;;;;;;;;;;;5034472;28;19924;-59
2022/12/07 01:44:13;;;;;;;;;;;;;;;;;;5013894;28;19929;-60
2022/12/07 01:46:43;;;;;;;;;;;;;;;;;;5032923;28;19922;-60
2022/12/07 01:49:09;;;;;;;;;;;;;;;;;;5016623;28;20007;-60
2022/12/07 01:51:35;;;;;;;;;;;;;;;;;;5034670;28;20459;-60
2022/12/07 01:54:00;;;;;;;;;;;;;;;;;;5035433;28;20000;-59
2022/12/07 01:56:26;;;;;;;;;;;;;;;;;;5036065;28;19921;-60
2022/12/07 01:58:51;;;;;;;;;;;;;;;;;;5000478;28;19921;-60
2022/12/07 02:01:16;;;;;;;;;;;;;;;;;;5036577;28;20489;-60
2022/12/07 02:03:42;;;;;;;;;;;;;;;;;;5030643;28;20009;-60
2022/12/07 02:06:07;;;;;;;;;;;;;;;;;;5031413;28;21452;-59
2022/12/07 02:11:51;;;;;;;;;;;;;;;;;;5030506;28;19962;-59
2022/12/07 02:14:16;;;;;;;;;;;;;;;;;;5033141;28;19920;-59
2022/12/07 02:16:41;;;;;;;;;;;;;;;;;;5016852;28;19951;-59
2022/12/07 02:19:09;;;;;;;;;;;;;;;;;;5033774;28;20136;-59
2022/12/07 02:21:36;;;;;;;;;;;;;;;;;;4998438;28;20741;-59
2022/12/07 02:24:01;;;;;;;;;;;;;;;;;;5034493;28;20007;-59
2022/12/07 02:26:27;;;;;;;;;;;;;;;;;;5036163;28;19928;-59
2022/12/07 02:28:52;;;;;;;;;;;;;;;;;;5031839;28;19921;-59
2022/12/07 02:31:17;;;;;;;;;;;;;;;;;;5032279;28;21490;-59
2022/12/07 02:33:42;;;;;;;;;;;;;;;;;;5025529;28;20667;-59
2022/12/07 02:36:08;;;;;;;;;;;;;;;;;;5030762;28;20011;-59
2022/12/07 02:38:33;;;;;;;;;;;;;;;;;;5031511;28;19921;-59
2022/12/07 02:40:58;;;;;;;;;;;;;;;;;;5032212;28;20051;-59
2022/12/07 02:43:26;;;;;;;;;;;;;;;;;;5017165;28;19917;-60
2022/12/07 02:45:51;;;;;;;;;;;;;;;;;;5029029;28;19921;-59
2022/12/07 02:48:19;;;;;;;;;;;;;;;;;;5016731;28;19998;-59
2022/12/07 02:50:47;;;;;;;;;;;;;;;;;;5033181;28;20181;-59
2022/12/07 02:53:13;;;;;;;;;;;;;;;;;;5030426;28;19963;-59
2022/12/07 02:55:38;;;;;;;;;;;;;;;;;;5015900;28;20388;-59
2022/12/07 02:58:06;;;;;;;;;;;;;;;;;;5033046;28;19983;-59
2022/12/07 03:00:31;;;;;;;;;;;;;;;;;;5013534;28;20356;-59
2022/12/07 03:02:56;;;;;;;;;;;;;;;;;;5031313;28;19917;-59
2022/12/07 03:05:24;;;;;;;;;;;;;;;;;;5013526;28;20318;-59
2022/12/07 03:07:49;;;;;;;;;;;;;;;;;;5034779;28;19921;-59
2022/12/07 03:10:15;;;;;;;;;;;;;;;;;;5033302;28;20027;-61
2022/12/07 03:12:40;;;;;;;;;;;;;;;;;;5031590;28;19927;-59
2022/12/07 03:15:06;;;;;;;;;;;;;;;;;;5031452;28;20027;-59
2022/12/07 03:17:31;;;;;;;;;;;;;;;;;;5015935;28;19932;-59
2022/12/07 03:19:59;;;;;;;;;;;;;;;;;;5014387;28;20251;-59
2022/12/07 03:22:26;;;;;;;;;;;;;;;;;;5030136;28;19917;-59
2022/12/07 03:24:52;;;;;;;;;;;;;;;;;;5011510;28;19920;-59
2022/12/07 03:27:17;;;;;;;;;;;;;;;;;;5032917;28;20094;-59
2022/12/07 03:29:45;;;;;;;;;;;;;;;;;;5033724;28;19921;-58
2022/12/07 03:32:12;;;;;;;;;;;;;;;;;;5014439;28;19919;-59
2022/12/07 03:34:38;;;;;;;;;;;;;;;;;;5030795;28;20052;-60
2022/12/07 03:37:03;;;;;;;;;;;;;;;;;;5032828;28;19921;-60
2022/12/07 03:39:31;;;;;;;;;;;;;;;;;;5017172;28;19924;-60
2022/12/07 03:41:56;;;;;;;;;;;;;;;;;;5032827;28;20348;-60
2022/12/07 03:44:21;;;;;;;;;;;;;;;;;;5015531;28;19920;-60
2022/12/07 03:46:49;;;;;;;;;;;;;;;;;;5031317;28;20545;-60
2022/12/07 03:49:15;;;;;;;;;;;;;;;;;;5016042;28;19921;-60
2022/12/07 03:51:40;;;;;;;;;;;;;;;;;;5029607;28;20000;-60
2022/12/07 03:54:06;;;;;;;;;;;;;;;;;;5014446;28;19920;-61
2022/12/07 03:56:31;;;;;;;;;;;;;;;;;;5030228;28;19924;-61
2022/12/07 03:58:59;;;;;;;;;;;;;;;;;;5017795;28;19978;-61
2022/12/07 04:01:24;;;;;;;;;;;;;;;;;;5033032;28;19963;-60
2022/12/07 04:03:50;;;;;;;;;;;;;;;;;;5031475;28;19921;-61
2022/12/07 04:06:18;;;;;;;;;;;;;;;;;;5034268;28;19920;-61
2022/12/07 04:08:45;;;;;;;;;;;;;;;;;;5033288;28;20410;-61
2022/12/07 04:11:11;;;;;;;;;;;;;;;;;;5032825;28;21528;-61
2022/12/07 04:14:24;;;;;;;;;;;;;;;;;;5015913;28;19920;-61
2022/12/07 04:16:24;;;;;;;;;;;;;;;;;;5021201;28;19928;-60
2022/12/07 04:18:52;;;;;;;;;;;;;;;;;;5033415;28;20383;-61
2022/12/07 04:21:17;;;;;;;;;;;;;;;;;;5018690;28;20396;-61
2022/12/07 04:23:45;;;;;;;;;;;;;;;;;;5012943;28;19925;-61
2022/12/07 04:26:10;;;;;;;;;;;;;;;;;;5011763;28;19929;-61
2022/12/07 04:28:40;;;;;;;;;;;;;;;;;;5027132;28;20018;-61
2022/12/07 04:31:05;;;;;;;;;;;;;;;;;;5031723;28;20139;-61
2022/12/07 04:33:30;;;;;;;;;;;;;;;;;;5014893;28;19920;-61
2022/12/07 04:35:58;;;;;;;;;;;;;;;;;;5018944;28;20610;-59
2022/12/07 04:38:26;;;;;;;;;;;;;;;;;;5030319;28;19931;-59
2022/12/07 04:40:54;;;;;;;;;;;;;;;;;;5029657;28;19928;-60
2022/12/07 04:43:22;;;;;;;;;;;;;;;;;;5019007;28;19920;-60
2022/12/07 04:45:48;;;;;;;;;;;;;;;;;;5037320;28;19973;-61
2022/12/07 04:48:13;;;;;;;;;;;;;;;;;;5018194;28;21448;-61
2022/12/07 04:50:39;;;;;;;;;;;;;;;;;;5038158;28;19920;-60
2022/12/07 04:53:07;;;;;;;;;;;;;;;;;;5038167;28;20631;-61
2022/12/07 04:55:35;;;;;;;;;;;;;;;;;;5041578;28;19919;-61
2022/12/07 04:58:02;;;;;;;;;;;;;;;;;;5020991;28;19962;-61
2022/12/07 05:00:28;;;;;;;;;;;;;;;;;;5020477;28;19952;-61
2022/12/07 05:02:53;;;;;;;;;;;;;;;;;;5038680;28;19920;-61
2022/12/07 05:05:20;;;;;;;;;;;;;;;;;;5037761;28;19916;-60
2022/12/07 05:07:46;;;;;;;;;;;;;;;;;;5039625;28;19928;-60
2022/12/07 05:10:11;;;;;;;;;;;;;;;;;;5039933;28;19924;-61
2022/12/07 05:12:36;;;;;;;;;;;;;;;;;;5042749;28;19958;-61
2022/12/07 05:15:06;;;;;;;;;;;;;;;;;;5025132;28;19920;-61
2022/12/07 05:17:34;;;;;;;;;;;;;;;;;;5023459;28;19928;-60
2022/12/07 05:19:59;;;;;;;;;;;;;;;;;;5036731;28;19975;-61
2022/12/07 05:22:27;;;;;;;;;;;;;;;;;;5022105;28;20023;-61
2022/12/07 05:24:53;;;;;;;;;;;;;;;;;;5038288;28;19917;-61
2022/12/07 05:27:20;;;;;;;;;;;;;;;;;;5037095;28;19928;-60
2022/12/07 05:29:46;;;;;;;;;;;;;;;;;;5021353;28;20030;-61
2022/12/07 05:32:16;;;;;;;;;;;;;;;;;;5037842;28;19917;-60
2022/12/07 05:34:42;;;;;;;;;;;;;;;;;;5036985;28;19979;-61
2022/12/07 05:37:10;;;;;;;;;;;;;;;;;;5020900;28;20287;-61
2022/12/07 05:39:35;;;;;;;;;;;;;;;;;;5027351;28;19928;-61
2022/12/07 05:42:15;;;;;;;;;;;;;;;;;;5036993;28;20628;-60
2022/12/07 05:44:43;;;;;;;;;;;;;;;;;;5023680;28;19960;-60
2022/12/07 05:47:13;;;;;;;;;;;;;;;;;;5018759;28;20611;-60
2022/12/07 05:49:41;;;;;;;;;;;;;;;;;;5036996;28;19983;-60
2022/12/07 05:52:06;;;;;;;;;;;;;;;;;;5022404;28;20389;-61
2022/12/07 05:54:36;;;;;;;;;;;;;;;;;;5022357;28;19920;-60
2022/12/07 05:57:01;;;;;;;;;;;;;;;;;;5022460;28;20668;-60
2022/12/07 05:59:29;;;;;;;;;;;;;;;;;;5036052;28;19931;-60
2022/12/07 06:01:54;;;;;;;;;;;;;;;;;;5038613;28;19920;-61
2022/12/07 06:04:22;;;;;;;;;;;;;;;;;;5035746;28;20391;-60
2022/12/07 06:06:50;;;;;;;;;;;;;;;;;;5021144;28;19958;-61
2022/12/07 06:09:15;;;;;;;;;;;;;;;;;;5020434;28;19962;-61
2022/12/07 06:14:25;;;;;;;;;;;;;;;;;;5036392;28;19921;-60
2022/12/07 06:16:50;;;;;;;;;;;;;;;;;;5022645;28;19920;-60
2022/12/07 06:19:16;;;;;;;;;;;;;;;;;;5034611;28;19925;-60
2022/12/07 06:21:44;;;;;;;;;;;;;;;;;;5034927;28;19921;-62
2022/12/07 06:24:09;;;;;;;;;;;;;;;;;;5036294;28;19921;-60
2022/12/07 06:26:34;;;;;;;;;;;;;;;;;;5003908;28;19946;-60
2022/12/07 06:29:02;;;;;;;;;;;;;;;;;;5035130;28;19990;-60
2022/12/07 06:31:27;;;;;;;;;;;;;;;;;;5028400;28;20363;-60
2022/12/07 06:33:52;;;;;;;;;;;;;;;;;;5018487;28;19920;-60
2022/12/07 06:36:18;;;;;;;;;;;;;;;;;;5033043;28;20219;-60
2022/12/07 06:38:43;;;;;;;;;;;;;;;;;;5034104;28;19939;-61
2022/12/07 06:41:11;;;;;;;;;;;;;;;;;;5024793;28;19917;-61
2022/12/07 06:43:36;;;;;;;;;;;;;;;;;;5036729;28;19966;-61
2022/12/07 06:46:01;;;;;;;;;;;;;;;;;;5021572;28;19924;-61
2022/12/07 06:48:26;;;;;;;;;;;;;;;;;;5034767;28;19920;-61
2022/12/07 06:50:52;;;;;;;;;;;;;;;;;;5037636;28;20363;-61
2022/12/07 06:53:17;;;;;;;;;;;;;;;;;;5022248;28;19925;-60
2022/12/07 06:55:43;;;;;;;;;;;;;;;;;;5016054;28;20538;-61
2022/12/07 06:58:09;;;;;;;;;;;;;;;;;;5034625;28;19925;-60
2022/12/07 07:00:35;;;;;;;;;;;;;;;;;;5035059;28;20249;-60
2022/12/07 07:03:00;;;;;;;;;;;;;;;;;;5036924;28;19951;-60
2022/12/07 07:05:25;;;;;;;;;;;;;;;;;;5017477;28;20379;-60
2022/12/07 07:07:51;;;;;;;;;;;;;;;;;;5035159;28;20046;-61
2022/12/07 07:10:19;;;;;;;;;;;;;;;;;;5019980;28;19920;-61
2022/12/07 07:12:44;;;;;;;;;;;;;;;;;;5021391;28;19935;-61
2022/12/07 07:15:11;;;;;;;;;;;;;;;;;;5034918;28;19925;-61
2022/12/07 07:17:37;;;;;;;;;;;;;;;;;;5036103;28;19931;-61
2022/12/07 07:20:02;;;;;;;;;;;;;;;;;;5035828;28;20411;-61
2022/12/07 07:22:30;;;;;;;;;;;;;;;;;;5039868;28;20422;-61
2022/12/07 07:24:55;;;;;;;;;;;;;;;;;;5019865;28;20360;-61
2022/12/07 07:27:20;;;;;;;;;;;;;;;;;;5037205;28;19971;-61
2022/12/07 07:29:48;;;;;;;;;;;;;;;;;;5037564;28;20016;-61
2022/12/07 07:32:14;;;;;;;;;;;;;;;;;;5038030;28;20402;-61
2022/12/07 07:34:44;;;;;;;;;;;;;;;;;;5015352;28;20793;-61
2022/12/07 07:37:12;;;;;;;;;;;;;;;;;;5035900;28;19943;-61
2022/12/07 07:39:37;;;;;;;;;;;;;;;;;;5033397;28;20559;-61
2022/12/07 07:42:05;;;;;;;;;;;;;;;;;;5019534;28;19917;-61
2022/12/07 07:44:30;;;;;;;;;;;;;;;;;;5035384;28;19927;-61
2022/12/07 07:46:58;;;;;;;;;;;;;;;;;;5035040;28;19994;-61
2022/12/07 07:49:26;;;;;;;;;;;;;;;;;;5034832;28;19921;-61
2022/12/07 07:51:53;;;;;;;;;;;;;;;;;;5039883;28;19924;-61
2022/12/07 07:54:21;;;;;;;;;;;;;;;;;;5034641;28;20027;-61
2022/12/07 07:56:49;;;;;;;;;;;;;;;;;;5037362;28;19943;-61
2022/12/07 07:59:15;;;;;;;;;;;;;;;;;;5036007;28;19920;-61
2022/12/07 08:01:40;;;;;;;;;;;;;;;;;;5035134;28;20552;-61
2022/12/07 08:04:06;;;;;;;;;;;;;;;;;;5035620;28;19926;-61
2022/12/07 08:06:31;;;;;;;;;;;;;;;;;;5019700;28;20656;-60
2022/12/07 08:08:58;;;;;;;;;;;;;;;;;;5019873;28;19928;-61
2022/12/07 08:11:23;;;;;;;;;;;;;;;;;;5038079;28;19925;-61
2022/12/07 08:13:48;;;;;;;;;;;;;;;;;;5006354;28;19979;-60
2022/12/07 08:16:16;;;;;;;;;;;;;;;;;;5039332;28;20059;-60
2022/12/07 08:18:46;;;;;;;;;;;;;;;;;;5039905;28;20008;-60
2022/12/07 08:21:14;;;;;;;;;;;;;;;;;;5040197;28;19916;-60
2022/12/07 08:23:42;;;;;;;;;;;;;;;;;;5039597;28;20212;-59
2022/12/07 08:26:07;;;;;;;;;;;;;;;;;;5040084;28;19928;-60
2022/12/07 08:28:35;;;;;;;;;;;;;;;;;;5038391;28;20024;-60
2022/12/07 08:31:03;;;;;;;;;;;;;;;;;;5021821;28;20663;-60
2022/12/07 08:33:28;;;;;;;;;;;;;;;;;;5026438;28;20457;-60
2022/12/07 08:35:53;;;;;;;;;;;;;;;;;;5021613;28;19920;-60
2022/12/07 08:38:18;;;;;;;;;;;;;;;;;;5040358;28;19924;-61
2022/12/07 08:40:44;;;;;;;;;;;;;;;;;;5041592;28;20126;-61
2022/12/07 08:43:10;;;;;;;;;;;;;;;;;;5040601;28;19923;-60
2022/12/07 08:45:35;;;;;;;;;;;;;;;;;;5038080;28;19952;-60
2022/12/07 08:48:01;;;;;;;;;;;;;;;;;;5061337;28;19920;-60
2022/12/07 08:50:26;;;;;;;;;;;;;;;;;;5059426;28;20018;-60
2022/12/07 08:52:54;;;;;;;;;;;;;;;;;;5013686;28;20033;-60
2022/12/07 08:55:19;;;;;;;;;;;;;;;;;;5044316;28;19969;-60
2022/12/07 08:57:45;;;;;;;;;;;;;;;;;;5061053;28;20479;-60
2022/12/07 09:00:15;;;;;;;;;;;;;;;;;;5059104;28;19920;-61
2022/12/07 09:02:43;;;;;;;;;;;;;;;;;;5059266;28;19921;-60
2022/12/07 09:05:09;;;;;;;;;;;;;;;;;;5057166;28;19920;-60
2022/12/07 09:07:34;;;;;;;;;;;;;;;;;;5061506;28;19921;-61
2022/12/07 09:10:00;;;;;;;;;;;;;;;;;;5040840;28;21669;-59
2022/12/07 09:12:27;;;;;;;;;;;;;;;;;;5060601;28;19917;-60
2022/12/07 09:14:53;;;;;;;;;;;;;;;;;;5059579;28;20516;-59
2022/12/07 09:17:23;;;;;;;;;;;;;;;;;;5060143;28;20346;-59
2022/12/07 09:19:50;;;;;;;;;;;;;;;;;;5058656;28;20495;-59
2022/12/07 09:22:15;;;;;;;;;;;;;;;;;;5040800;28;20065;-59
2022/12/07 09:24:41;;;;;;;;;;;;;;;;;;5059052;28;19924;-59
2022/12/07 09:27:06;;;;;;;;;;;;;;;;;;5056873;28;19920;-59
2022/12/07 09:29:31;;;;;;;;;;;;;;;;;;5060370;28;21440;-59
2022/12/07 09:31:57;;;;;;;;;;;;;;;;;;5059991;28;19947;-59
2022/12/07 09:34:22;;;;;;;;;;;;;;;;;;5057216;28;19977;-59
2022/12/07 09:36:47;;;;;;;;;;;;;;;;;;5061748;28;19920;-59
2022/12/07 09:39:13;;;;;;;;;;;;;;;;;;5061039;28;20018;-58
2022/12/07 09:41:41;;;;;;;;;;;;;;;;;;5058672;28;19947;-58
2022/12/07 09:44:07;;;;;;;;;;;;;;;;;;5058723;28;20000;-58
2022/12/07 09:46:35;;;;;;;;;;;;;;;;;;5057009;28;19924;-59
2022/12/07 09:49:02;;;;;;;;;;;;;;;;;;5037472;28;19924;-59
2022/12/07 09:51:28;;;;;;;;;;;;;;;;;;5060544;28;19960;-58
2022/12/07 09:53:54;;;;;;;;;;;;;;;;;;5059577;28;20394;-59
2022/12/07 09:56:19;;;;;;;;;;;;;;;;;;5036595;28;19927;-58
2022/12/07 09:58:44;;;;;;;;;;;;;;;;;;5057599;28;19953;-59
2022/12/07 10:01:10;;;;;;;;;;;;;;;;;;5059217;28;20036;-59
2022/12/07 10:03:36;;;;;;;;;;;;;;;;;;5055706;28;19924;-58
2022/12/07 10:06:01;;;;;;;;;;;;;;;;;;5058387;28;20055;-60
2022/12/07 10:08:29;;;;;;;;;;;;;;;;;;5060713;28;19943;-58
2022/12/07 10:10:58;;;;;;;;;;;;;;;;;;5029765;28;19921;-59
2022/12/07 10:13:40;;;;;;;;;;;;;;;;;;4984629;28;20024;-59
2022/12/07 10:16:08;;;;;;;;;;;;;;;;;;5020606;28;20121;-58
2022/12/07 10:21:49;;;;;;;;;;;;;;;;;;5018501;28;20485;-59
2022/12/07 10:24:15;;;;;;;;;;;;;;;;;;4982287;28;20039;-60
2022/12/07 10:26:48;;;;;;;;;;;;;;;;;;5007686;28;21721;-59
2022/12/07 10:29:19;;;;;;;;;;;;;;;;;;5014108;28;19927;-59
2022/12/07 10:31:44;;;;;;;;;;;;;;;;;;5015300;28;19916;-58
2022/12/07 10:34:13;;;;;;;;;;;;;;;;;;4995120;28;19932;-58
2022/12/07 10:36:42;;;;;;;;;;;;;;;;;;5013800;28;20494;-59
2022/12/07 10:39:08;;;;;;;;;;;;;;;;;;5003101;28;20034;-58
2022/12/07 10:41:33;;;;;;;;;;;;;;;;;;5017445;28;20024;-60
2022/12/07 10:43:59;;;;;;;;;;;;;;;;;;5025506;28;20445;-60
2022/12/07 10:46:24;;;;;;;;;;;;;;;;;;5039822;28;20049;-60
2022/12/07 10:48:49;;;;;;;;;;;;;;;;;;5059180;28;19927;-60
2022/12/07 10:51:15;;;;;;;;;;;;;;;;;;5055736;28;20184;-60
2022/12/07 10:53:40;;;;;;;;;;;;;;;;;;5058342;28;19953;-60
2022/12/07 10:56:06;;;;;;;;;;;;;;;;;;5054718;28;20303;-60
2022/12/07 10:58:36;;;;;;;;;;;;;;;;;;5038337;28;20393;-60
2022/12/07 11:01:05;;;;;;;;;;;;;;;;;;5056208;28;19962;-60
2022/12/07 11:03:31;;;;;;;;;;;;;;;;;;5056825;28;20171;-60
2022/12/07 11:05:58;;;;;;;;;;;;;;;;;;5055241;28;19918;-60
2022/12/07 11:08:26;;;;;;;;;;;;;;;;;;5057427;28;19922;-60
2022/12/07 11:10:57;;;;;;;;;;;;;;;;;;5061551;28;19962;-58
2022/12/07 11:13:22;;;;;;;;;;;;;;;;;;5059780;28;19924;-59
2022/12/07 11:15:50;;;;;;;;;;;;;;;;;;5057806;28;20378;-59
2022/12/07 11:18:18;;;;;;;;;;;;;;;;;;5040398;28;21487;-59
2022/12/07 11:20:44;;;;;;;;;;;;;;;;;;5038054;28;20098;-59
2022/12/07 11:23:09;;;;;;;;;;;;;;;;;;5058091;28;20286;-58
2022/12/07 11:25:34;;;;;;;;;;;;;;;;;;5057611;28;20596;-60
2022/12/07 11:28:00;;;;;;;;;;;;;;;;;;5041420;28;20043;-59
2022/12/07 11:30:27;;;;;;;;;;;;;;;;;;5057061;28;20011;-60
2022/12/07 11:32:54;;;;;;;;;;;;;;;;;;5058303;28;19925;-60
2022/12/07 11:35:20;;;;;;;;;;;;;;;;;;5057181;28;21860;-60
2022/12/07 11:37:45;;;;;;;;;;;;;;;;;;5058592;28;20138;-59
2022/12/07 11:40:10;;;;;;;;;;;;;;;;;;5056081;28;20454;-59
2022/12/07 11:42:37;;;;;;;;;;;;;;;;;;5057509;28;19920;-59
2022/12/07 11:45:05;;;;;;;;;;;;;;;;;;5037131;28;19930;-60
2022/12/07 11:47:31;;;;;;;;;;;;;;;;;;5036750;28;19920;-58
2022/12/07 11:49:58;;;;;;;;;;;;;;;;;;5029083;28;20391;-58
2022/12/07 11:52:24;;;;;;;;;;;;;;;;;;5055655;28;19916;-59
2022/12/07 11:54:52;;;;;;;;;;;;;;;;;;5040519;28;19920;-58
2022/12/07 11:57:18;;;;;;;;;;;;;;;;;;5057730;28;20023;-58
2022/12/07 11:59:43;;;;;;;;;;;;;;;;;;5055428;28;20375;-58
2022/12/07 12:02:08;;;;;;;;;;;;;;;;;;5057039;28;19927;-58
2022/12/07 12:04:33;;;;;;;;;;;;;;;;;;5034924;28;22220;-58
2022/12/07 12:07:03;;;;;;;;;;;;;;;;;;5057605;28;19942;-59
2022/12/07 12:09:31;;;;;;;;;;;;;;;;;;5037044;28;19915;-59
2022/12/07 12:11:57;;;;;;;;;;;;;;;;;;5057658;28;19931;-58
2022/12/07 12:14:23;;;;;;;;;;;;;;;;;;5057542;28;19920;-59
2022/12/07 12:16:52;;;;;;;;;;;;;;;;;;5040334;28;20404;-59
2022/12/07 12:19:17;;;;;;;;;;;;;;;;;;5055295;28;20656;-58
2022/12/07 12:21:43;;;;;;;;;;;;;;;;;;5056174;28;19968;-59
2022/12/07 12:24:11;;;;;;;;;;;;;;;;;;5058896;28;19994;-59
2022/12/07 12:26:36;;;;;;;;;;;;;;;;;;5036851;28;20783;-59
2022/12/07 12:29:01;;;;;;;;;;;;;;;;;;5037756;28;20670;-59
2022/12/07 12:31:29;;;;;;;;;;;;;;;;;;5017163;28;19990;-60
2022/12/07 12:33:54;;;;;;;;;;;;;;;;;;5036360;28;20575;-60
2022/12/07 12:36:22;;;;;;;;;;;;;;;;;;5045095;28;19920;-59
2022/12/07 12:38:48;;;;;;;;;;;;;;;;;;5058429;28;20570;-60
2022/12/07 12:41:14;;;;;;;;;;;;;;;;;;5054673;28;20030;-60
2022/12/07 12:43:39;;;;;;;;;;;;;;;;;;5056499;28;19924;-58
2022/12/07 12:46:05;;;;;;;;;;;;;;;;;;5054510;28;19920;-59
2022/12/07 12:48:30;;;;;;;;;;;;;;;;;;5041107;28;19919;-59
2022/12/07 12:50:55;;;;;;;;;;;;;;;;;;5059340;28;19920;-60
2022/12/07 12:53:20;;;;;;;;;;;;;;;;;;5059395;28;19947;-60
2022/12/07 12:55:48;;;;;;;;;;;;;;;;;;5061353;28;19963;-58
2022/12/07 12:58:17;;;;;;;;;;;;;;;;;;5061823;28;19962;-58
2022/12/07 13:00:42;;;;;;;;;;;;;;;;;;5062568;28;19920;-58
2022/12/07 13:03:10;;;;;;;;;;;;;;;;;;5060114;28;19916;-58
2022/12/07 13:05:36;;;;;;;;;;;;;;;;;;5057524;28;19920;-58
2022/12/07 13:08:06;;;;;;;;;;;;;;;;;;5060726;28;19920;-58
2022/12/07 13:10:32;;;;;;;;;;;;;;;;;;5042410;28;20030;-59
2022/12/07 13:13:00;;;;;;;;;;;;;;;;;;5043616;28;20603;-58
2022/12/07 13:15:26;;;;;;;;;;;;;;;;;;4976987;28;19926;-57
2022/12/07 13:17:53;;;;;;;;;;;;;;;;;;4957458;28;19926;-57
2022/12/07 13:20:19;;;;;;;;;;;;;;;;;;4957919;28;20474;-58
2022/12/07 13:22:44;;;;;;;;;;;;;;;;;;4959549;28;19930;-58
2022/12/07 13:25:10;;;;;;;;;;;;;;;;;;4943757;28;19945;-58
2022/12/07 13:27:36;;;;;;;;;;;;;;;;;;4941015;28;19922;-58
2022/12/07 13:30:01;;;;;;;;;;;;;;;;;;4941171;28;20004;-58
2022/12/07 13:32:35;;;;;;;;;;;;;;;;;;4938696;28;19922;-59
2022/12/07 13:35:02;;;;;;;;;;;;;;;;;;4939089;28;20532;-59
2022/12/07 13:37:28;;;;;;;;;;;;;;;;;;4939862;28;20286;-60
2022/12/07 13:39:53;;;;;;;;;;;;;;;;;;4958279;28;20021;-59
2022/12/07 13:42:18;;;;;;;;;;;;;;;;;;4940727;28;19941;-60
2022/12/07 13:44:46;;;;;;;;;;;;;;;;;;4937960;28;19918;-59
2022/12/07 13:47:11;;;;;;;;;;;;;;;;;;4952554;28;19960;-60
2022/12/07 13:49:37;;;;;;;;;;;;;;;;;;4941953;28;20568;-60
2022/12/07 13:52:02;;;;;;;;;;;;;;;;;;4939033;28;19924;-61
2022/12/07 13:54:28;;;;;;;;;;;;;;;;;;4957862;28;20424;-61
2022/12/07 13:56:54;;;;;;;;;;;;;;;;;;4938202;28;19927;-60
2022/12/07 13:59:20;;;;;;;;;;;;;;;;;;4954999;28;19926;-61
2022/12/07 14:01:48;;;;;;;;;;;;;;;;;;4938436;28;19929;-60
2022/12/07 14:04:14;;;;;;;;;;;;;;;;;;4957626;28;20345;-61
2022/12/07 14:06:39;;;;;;;;;;;;;;;;;;4938911;28;21697;-61
2022/12/07 14:09:05;;;;;;;;;;;;;;;;;;4941519;28;19926;-62
2022/12/07 14:11:31;;;;;;;;;;;;;;;;;;4939971;28;19929;-61
2022/12/07 14:13:57;;;;;;;;;;;;;;;;;;4947400;28;22031;-62
2022/12/07 14:16:25;;;;;;;;;;;;;;;;;;5053683;28;19931;-60
2022/12/07 14:18:50;;;;;;;;;;;;;;;;;;5042794;28;19928;-60
2022/12/07 14:21:16;;;;;;;;;;;;;;;;;;5039186;28;20225;-62
2022/12/07 14:23:44;;;;;;;;;;;;;;;;;;5056966;28;19927;-59
2022/12/07 14:26:09;;;;;;;;;;;;;;;;;;5043179;28;19920;-59
2022/12/07 14:28:39;;;;;;;;;;;;;;;;;;5057754;28;20336;-59
2022/12/07 14:31:05;;;;;;;;;;;;;;;;;;5058372;28;19916;-59
2022/12/07 14:33:30;;;;;;;;;;;;;;;;;;5043455;28;19966;-59
2022/12/07 14:35:57;;;;;;;;;;;;;;;;;;5058082;28;19920;-59
2022/12/07 14:38:24;;;;;;;;;;;;;;;;;;5059611;28;19928;-58
2022/12/07 14:40:50;;;;;;;;;;;;;;;;;;5035725;28;19924;-60
2022/12/07 14:43:15;;;;;;;;;;;;;;;;;;5042705;28;19924;-58
2022/12/07 14:45:41;;;;;;;;;;;;;;;;;;5058729;28;19928;-59
2022/12/07 14:48:09;;;;;;;;;;;;;;;;;;5059542;28;19920;-59
2022/12/07 14:50:36;;;;;;;;;;;;;;;;;;5061778;28;20307;-58
2022/12/07 14:53:02;;;;;;;;;;;;;;;;;;5061003;28;19920;-59
2022/12/07 14:55:30;;;;;;;;;;;;;;;;;;5057355;28;19916;-59
2022/12/07 14:58:00;;;;;;;;;;;;;;;;;;5042040;28;19925;-61
2022/12/07 15:00:28;;;;;;;;;;;;;;;;;;5057872;28;19923;-64
2022/12/07 15:02:53;;;;;;;;;;;;;;;;;;5037887;28;21544;-61
2022/12/07 15:05:21;;;;;;;;;;;;;;;;;;5042345;28;20283;-60
2022/12/07 15:07:48;;;;;;;;;;;;;;;;;;5041762;28;20431;-60
2022/12/07 15:10:14;;;;;;;;;;;;;;;;;;5054717;28;20395;-60
2022/12/07 15:12:42;;;;;;;;;;;;;;;;;;5036386;28;19920;-60
2022/12/07 15:15:07;;;;;;;;;;;;;;;;;;5057583;28;19931;-60
2022/12/07 15:17:32;;;;;;;;;;;;;;;;;;5059187;28;19928;-60
2022/12/07 15:19:58;;;;;;;;;;;;;;;;;;5056174;28;19933;-60
2022/12/07 15:22:43;;;;;;;;;;;;;;;;;;5058755;28;19920;-59
2022/12/07 15:25:08;;;;;;;;;;;;;;;;;;5060727;28;19950;-61
2022/12/07 15:27:33;;;;;;;;;;;;;;;;;;5058457;28;19920;-61
2022/12/07 15:29:59;;;;;;;;;;;;;;;;;;5059723;28;19920;-60
2022/12/07 15:32:24;;;;;;;;;;;;;;;;;;5057898;28;19968;-61
2022/12/07 15:34:49;;;;;;;;;;;;;;;;;;5054353;28;20693;-61
2022/12/07 15:37:15;;;;;;;;;;;;;;;;;;5038207;28;19931;-61
2022/12/07 15:39:40;;;;;;;;;;;;;;;;;;5036843;28;20297;-60
2022/12/07 15:42:08;;;;;;;;;;;;;;;;;;5042912;28;19956;-61
2022/12/07 15:47:17;;;;;;;;;;;;;;;;;;5044829;28;19924;-60
2022/12/07 15:49:45;;;;;;;;;;;;;;;;;;5058405;28;20343;-60
2022/12/07 15:52:11;;;;;;;;;;;;;;;;;;5056021;28;19923;-61
2022/12/07 15:54:37;;;;;;;;;;;;;;;;;;5057827;28;19955;-61
2022/12/07 15:57:02;;;;;;;;;;;;;;;;;;5054198;28;19942;-60
2022/12/07 15:59:30;;;;;;;;;;;;;;;;;;5057371;28;19924;-60
2022/12/07 16:01:58;;;;;;;;;;;;;;;;;;5035880;28;19931;-60
2022/12/07 16:04:28;;;;;;;;;;;;;;;;;;5055874;28;19916;-60
2022/12/07 16:06:55;;;;;;;;;;;;;;;;;;5060511;28;20369;-59
2022/12/07 16:09:21;;;;;;;;;;;;;;;;;;5059922;28;20024;-60
2022/12/07 16:11:46;;;;;;;;;;;;;;;;;;5020699;28;19917;-62
2022/12/07 16:14:11;;;;;;;;;;;;;;;;;;5037373;28;20586;-60
2022/12/07 16:16:46;;;;;;;;;;;;;;;;;;5054958;28;20109;-61
2022/12/07 16:19:18;;;;;;;;;;;;;;;;;;5053967;28;19931;-60
2022/12/07 16:21:45;;;;;;;;;;;;;;;;;;5053320;28;19916;-61
2022/12/07 16:24:21;;;;;;;;;;;;;;;;;;;;;
2022/12/07 16:26:52;;;;;;;;;;;;;;;;;;5055754;28;19967;-65
2022/12/07 16:29:37;;;;;;;;;;;;;;;;;;5064010;28;20014;-62
2022/12/07 16:32:23;;;;;;;;;;;;;;;;;;5045146;28;19923;-61
2022/12/07 16:34:49;;;;;;;;;;;;;;;;;;5055710;28;19921;-62
2022/12/07 16:37:14;;;;;;;;;;;;;;;;;;5039264;28;20227;-62
2022/12/07 16:39:40;;;;;;;;;;;;;;;;;;5057266;28;19924;-62
2022/12/07 16:42:05;;;;;;;;;;;;;;;;;;5043572;28;20581;-63
2022/12/07 16:44:33;;;;;;;;;;;;;;;;;;5061575;28;19926;-61
2022/12/07 16:47:21;;;;;;;;;;;;;;;;;;5048731;28;19916;-61
2022/12/07 16:49:47;;;;;;;;;;;;;;;;;;5056221;28;19920;-62
2022/12/07 16:52:13;;;;;;;;;;;;;;;;;;5039988;28;19917;-62
2022/12/07 16:54:38;;;;;;;;;;;;;;;;;;5040253;28;20018;-63